sensor_id;sensor_type;location;lat;lon;timestamp;P1;durP1;ratioP1;P2;durP2;ratioP2
4616;SDS011;2321;42.704;23.384;2022-10-28T00:00:03;13.53;;;5.03;;
4616;SDS011;2321;42.704;23.384;2022-10-28T00:02:31;17.03;;;7.90;;
4616;SDS011;2321;42.704;23.384;2022-10-28T00:04:58;9.67;;;5.77;;
4616;SDS011;2321;42.704;23.384;2022-10-28T00:07:26;6.03;;;5.43;;
4616;SDS011;2321;42.704;23.384;2022-10-28T00:09:54;11.43;;;5.87;;
4616;SDS011;2321;42.704;23.384;2022-10-28T00:12:22;15.47;;;8.13;;
4616;SDS011;2321;42.704;23.384;2022-10-28T00:14:49;12.73;;;5.40;;
4616;SDS011;2321;42.704;23.384;2022-10-28T00:17:16;10.70;;;6.00;;
4616;SDS011;2321;42.704;23.384;2022-10-28T00:19:43;15.33;;;5.50;;
4616;SDS011;2321;42.704;23.384;2022-10-28T00:22:10;9.10;;;5.03;;
4616;SDS011;2321;42.704;23.384;2022-10-28T00:24:37;21.07;;;4.13;;
4616;SDS011;2321;42.704;23.384;2022-10-28T00:27:03;13.27;;;5.90;;
4616;SDS011;2321;42.704;23.384;2022-10-28T00:29:32;8.40;;;4.80;;
4616;SDS011;2321;42.704;23.384;2022-10-28T00:31:59;7.40;;;4.53;;
4616;SDS011;2321;42.704;23.384;2022-10-28T00:34:26;5.70;;;5.17;;
4616;SDS011;2321;42.704;23.384;2022-10-28T00:36:52;6.33;;;3.87;;
4616;SDS011;2321;42.704;23.384;2022-10-28T00:39:20;8.13;;;5.67;;
4616;SDS011;2321;42.704;23.384;2022-10-28T00:41:49;7.80;;;4.77;;
4616;SDS011;2321;42.704;23.384;2022-10-28T00:47:29;11.60;;;4.00;;
4616;SDS011;2321;42.704;23.384;2022-10-28T00:50:04;6.30;;;4.97;;
4616;SDS011;2321;42.704;23.384;2022-10-28T00:52:49;18.80;;;6.30;;
4616;SDS011;2321;42.704;23.384;2022-10-28T00:55:19;12.10;;;5.70;;
4616;SDS011;2321;42.704;23.384;2022-10-28T00:57:47;17.33;;;5.00;;
4616;SDS011;2321;42.704;23.384;2022-10-28T01:00:15;5.23;;;3.53;;
4616;SDS011;2321;42.704;23.384;2022-10-28T01:02:45;4.77;;;3.67;;
4616;SDS011;2321;42.704;23.384;2022-10-28T01:05:15;5.33;;;4.47;;
4616;SDS011;2321;42.704;23.384;2022-10-28T01:07:52;3.57;;;3.33;;
4616;SDS011;2321;42.704;23.384;2022-10-28T01:10:25;9.33;;;3.80;;
4616;SDS011;2321;42.704;23.384;2022-10-28T01:13:02;3.90;;;3.57;;
4616;SDS011;2321;42.704;23.384;2022-10-28T01:15:40;7.13;;;3.30;;
4616;SDS011;2321;42.704;23.384;2022-10-28T01:18:15;7.60;;;3.80;;
4616;SDS011;2321;42.704;23.384;2022-10-28T01:24:04;3.47;;;3.17;;
4616;SDS011;2321;42.704;23.384;2022-10-28T01:26:46;4.13;;;3.57;;
4616;SDS011;2321;42.704;23.384;2022-10-28T01:29:44;3.67;;;3.47;;
4616;SDS011;2321;42.704;23.384;2022-10-28T01:32:29;2.53;;;2.33;;
4616;SDS011;2321;42.704;23.384;2022-10-28T01:35:05;4.23;;;3.47;;
4616;SDS011;2321;42.704;23.384;2022-10-28T01:37:43;2.13;;;2.00;;
4616;SDS011;2321;42.704;23.384;2022-10-28T01:40:17;2.97;;;2.57;;
4616;SDS011;2321;42.704;23.384;2022-10-28T01:42:52;4.03;;;2.77;;
4616;SDS011;2321;42.704;23.384;2022-10-28T01:45:22;6.60;;;3.93;;
4616;SDS011;2321;42.704;23.384;2022-10-28T01:47:55;2.90;;;2.63;;
4616;SDS011;2321;42.704;23.384;2022-10-28T01:50:27;8.70;;;3.77;;
4616;SDS011;2321;42.704;23.384;2022-10-28T01:52:59;4.00;;;3.33;;
4616;SDS011;2321;42.704;23.384;2022-10-28T01:55:30;5.00;;;3.53;;
4616;SDS011;2321;42.704;23.384;2022-10-28T01:58:01;7.43;;;4.03;;
4616;SDS011;2321;42.704;23.384;2022-10-28T02:00:31;2.87;;;2.77;;
4616;SDS011;2321;42.704;23.384;2022-10-28T02:03:01;5.27;;;2.80;;
4616;SDS011;2321;42.704;23.384;2022-10-28T02:08:21;9.47;;;3.80;;
4616;SDS011;2321;42.704;23.384;2022-10-28T02:11:05;6.10;;;4.60;;
4616;SDS011;2321;42.704;23.384;2022-10-28T02:13:50;2.43;;;2.20;;
4616;SDS011;2321;42.704;23.384;2022-10-28T02:16:26;4.30;;;3.33;;
4616;SDS011;2321;42.704;23.384;2022-10-28T02:19:04;4.37;;;3.53;;
4616;SDS011;2321;42.704;23.384;2022-10-28T02:21:41;3.27;;;2.87;;
4616;SDS011;2321;42.704;23.384;2022-10-28T02:24:17;7.93;;;3.37;;
4616;SDS011;2321;42.704;23.384;2022-10-28T02:26:51;3.83;;;3.27;;
4616;SDS011;2321;42.704;23.384;2022-10-28T02:29:25;5.60;;;4.30;;
4616;SDS011;2321;42.704;23.384;2022-10-28T02:31:56;4.67;;;2.67;;
4616;SDS011;2321;42.704;23.384;2022-10-28T02:34:28;3.03;;;2.83;;
4616;SDS011;2321;42.704;23.384;2022-10-28T02:36:58;4.20;;;3.30;;
4616;SDS011;2321;42.704;23.384;2022-10-28T02:39:31;1.70;;;1.60;;
4616;SDS011;2321;42.704;23.384;2022-10-28T02:42:05;3.73;;;3.47;;
4616;SDS011;2321;42.704;23.384;2022-10-28T02:44:38;5.90;;;3.27;;
4616;SDS011;2321;42.704;23.384;2022-10-28T02:47:10;7.83;;;2.33;;
4616;SDS011;2321;42.704;23.384;2022-10-28T02:49:44;2.00;;;1.90;;
4616;SDS011;2321;42.704;23.384;2022-10-28T02:52:16;2.47;;;2.33;;
4616;SDS011;2321;42.704;23.384;2022-10-28T02:54:47;2.00;;;1.87;;
4616;SDS011;2321;42.704;23.384;2022-10-28T02:57:19;8.13;;;2.57;;
4616;SDS011;2321;42.704;23.384;2022-10-28T02:59:52;5.63;;;2.20;;
4616;SDS011;2321;42.704;23.384;2022-10-28T03:02:21;2.63;;;2.40;;
4616;SDS011;2321;42.704;23.384;2022-10-28T03:04:49;5.17;;;2.63;;
4616;SDS011;2321;42.704;23.384;2022-10-28T03:07:16;5.50;;;2.50;;
4616;SDS011;2321;42.704;23.384;2022-10-28T03:09:43;2.17;;;2.07;;
4616;SDS011;2321;42.704;23.384;2022-10-28T03:12:10;2.57;;;2.20;;
4616;SDS011;2321;42.704;23.384;2022-10-28T03:14:37;2.20;;;2.03;;
4616;SDS011;2321;42.704;23.384;2022-10-28T03:17:04;9.90;;;4.17;;
4616;SDS011;2321;42.704;23.384;2022-10-28T03:19:32;7.80;;;3.67;;
4616;SDS011;2321;42.704;23.384;2022-10-28T03:22:00;6.37;;;2.90;;
4616;SDS011;2321;42.704;23.384;2022-10-28T03:24:27;6.57;;;3.00;;
4616;SDS011;2321;42.704;23.384;2022-10-28T03:26:54;2.50;;;2.30;;
4616;SDS011;2321;42.704;23.384;2022-10-28T03:29:21;3.70;;;3.50;;
4616;SDS011;2321;42.704;23.384;2022-10-28T03:31:48;8.30;;;4.30;;
4616;SDS011;2321;42.704;23.384;2022-10-28T03:34:15;8.60;;;3.60;;
4616;SDS011;2321;42.704;23.384;2022-10-28T03:36:41;2.77;;;2.57;;
4616;SDS011;2321;42.704;23.384;2022-10-28T03:39:10;8.60;;;3.00;;
4616;SDS011;2321;42.704;23.384;2022-10-28T03:41:37;14.03;;;2.60;;
4616;SDS011;2321;42.704;23.384;2022-10-28T03:44:04;6.77;;;3.00;;
4616;SDS011;2321;42.704;23.384;2022-10-28T03:46:31;2.00;;;1.90;;
4616;SDS011;2321;42.704;23.384;2022-10-28T03:48:58;2.70;;;2.03;;
4616;SDS011;2321;42.704;23.384;2022-10-28T03:51:24;6.00;;;2.73;;
4616;SDS011;2321;42.704;23.384;2022-10-28T03:53:51;1.93;;;1.93;;
4616;SDS011;2321;42.704;23.384;2022-10-28T03:56:20;2.40;;;2.17;;
4616;SDS011;2321;42.704;23.384;2022-10-28T03:58:47;2.03;;;1.83;;
4616;SDS011;2321;42.704;23.384;2022-10-28T04:01:14;3.97;;;2.37;;
4616;SDS011;2321;42.704;23.384;2022-10-28T04:03:41;2.60;;;2.40;;
4616;SDS011;2321;42.704;23.384;2022-10-28T04:06:08;4.00;;;3.00;;
4616;SDS011;2321;42.704;23.384;2022-10-28T04:08:35;2.00;;;1.57;;
4616;SDS011;2321;42.704;23.384;2022-10-28T04:11:02;3.30;;;3.07;;
4616;SDS011;2321;42.704;23.384;2022-10-28T04:13:30;2.63;;;2.40;;
4616;SDS011;2321;42.704;23.384;2022-10-28T04:15:57;4.27;;;3.87;;
4616;SDS011;2321;42.704;23.384;2022-10-28T04:18:26;2.83;;;2.60;;
4616;SDS011;2321;42.704;23.384;2022-10-28T04:20:53;2.67;;;2.47;;
4616;SDS011;2321;42.704;23.384;2022-10-28T04:23:20;2.77;;;2.37;;
4616;SDS011;2321;42.704;23.384;2022-10-28T04:25:50;1.70;;;1.67;;
4616;SDS011;2321;42.704;23.384;2022-10-28T04:28:17;3.80;;;2.40;;
4616;SDS011;2321;42.704;23.384;2022-10-28T04:30:46;2.83;;;2.37;;
4616;SDS011;2321;42.704;23.384;2022-10-28T04:33:13;2.07;;;1.87;;
4616;SDS011;2321;42.704;23.384;2022-10-28T04:35:40;1.73;;;1.63;;
4616;SDS011;2321;42.704;23.384;2022-10-28T04:38:08;2.40;;;2.23;;
4616;SDS011;2321;42.704;23.384;2022-10-28T04:40:35;4.17;;;3.37;;
4616;SDS011;2321;42.704;23.384;2022-10-28T04:43:01;1.87;;;1.80;;
4616;SDS011;2321;42.704;23.384;2022-10-28T04:45:29;2.27;;;2.17;;
4616;SDS011;2321;42.704;23.384;2022-10-28T04:47:58;8.67;;;3.37;;
4616;SDS011;2321;42.704;23.384;2022-10-28T04:50:25;4.07;;;2.60;;
4616;SDS011;2321;42.704;23.384;2022-10-28T04:52:53;4.07;;;2.30;;
4616;SDS011;2321;42.704;23.384;2022-10-28T04:55:20;8.57;;;3.90;;
4616;SDS011;2321;42.704;23.384;2022-10-28T04:57:52;3.23;;;2.33;;
4616;SDS011;2321;42.704;23.384;2022-10-28T05:00:19;2.13;;;2.03;;
4616;SDS011;2321;42.704;23.384;2022-10-28T05:02:47;9.77;;;3.30;;
4616;SDS011;2321;42.704;23.384;2022-10-28T05:05:15;2.87;;;2.67;;
4616;SDS011;2321;42.704;23.384;2022-10-28T05:07:42;2.50;;;2.40;;
4616;SDS011;2321;42.704;23.384;2022-10-28T05:10:10;3.30;;;3.20;;
4616;SDS011;2321;42.704;23.384;2022-10-28T05:12:40;7.40;;;3.03;;
4616;SDS011;2321;42.704;23.384;2022-10-28T05:15:08;3.43;;;2.47;;
4616;SDS011;2321;42.704;23.384;2022-10-28T05:17:37;3.83;;;3.53;;
4616;SDS011;2321;42.704;23.384;2022-10-28T05:20:05;5.37;;;3.50;;
4616;SDS011;2321;42.704;23.384;2022-10-28T05:22:35;14.10;;;3.00;;
4616;SDS011;2321;42.704;23.384;2022-10-28T05:25:02;4.43;;;3.87;;
4616;SDS011;2321;42.704;23.384;2022-10-28T05:27:29;3.50;;;3.30;;
4616;SDS011;2321;42.704;23.384;2022-10-28T05:29:56;2.97;;;2.87;;
4616;SDS011;2321;42.704;23.384;2022-10-28T05:32:23;3.47;;;3.27;;
4616;SDS011;2321;42.704;23.384;2022-10-28T05:34:50;6.40;;;2.63;;
4616;SDS011;2321;42.704;23.384;2022-10-28T05:37:17;7.40;;;4.70;;
4616;SDS011;2321;42.704;23.384;2022-10-28T05:39:45;9.57;;;5.90;;
4616;SDS011;2321;42.704;23.384;2022-10-28T05:42:12;26.53;;;5.93;;
4616;SDS011;2321;42.704;23.384;2022-10-28T05:44:39;14.70;;;4.70;;
4616;SDS011;2321;42.704;23.384;2022-10-28T05:47:06;7.07;;;3.53;;
4616;SDS011;2321;42.704;23.384;2022-10-28T05:49:33;4.17;;;3.80;;
4616;SDS011;2321;42.704;23.384;2022-10-28T05:52:01;6.40;;;4.73;;
4616;SDS011;2321;42.704;23.384;2022-10-28T05:54:28;9.00;;;4.93;;
4616;SDS011;2321;42.704;23.384;2022-10-28T05:56:56;9.13;;;5.07;;
4616;SDS011;2321;42.704;23.384;2022-10-28T05:59:23;6.50;;;4.07;;
4616;SDS011;2321;42.704;23.384;2022-10-28T06:01:50;6.07;;;5.03;;
4616;SDS011;2321;42.704;23.384;2022-10-28T06:04:17;7.90;;;4.77;;
4616;SDS011;2321;42.704;23.384;2022-10-28T06:06:44;6.87;;;5.53;;
4616;SDS011;2321;42.704;23.384;2022-10-28T06:09:11;8.23;;;5.73;;
4616;SDS011;2321;42.704;23.384;2022-10-28T06:11:38;5.10;;;3.37;;
4616;SDS011;2321;42.704;23.384;2022-10-28T06:14:07;8.47;;;3.30;;
4616;SDS011;2321;42.704;23.384;2022-10-28T06:16:34;6.03;;;5.20;;
4616;SDS011;2321;42.704;23.384;2022-10-28T06:19:01;26.33;;;5.00;;
4616;SDS011;2321;42.704;23.384;2022-10-28T06:21:27;7.70;;;5.37;;
4616;SDS011;2321;42.704;23.384;2022-10-28T06:23:54;5.33;;;4.50;;
4616;SDS011;2321;42.704;23.384;2022-10-28T06:26:21;9.13;;;3.90;;
4616;SDS011;2321;42.704;23.384;2022-10-28T06:28:48;4.27;;;3.47;;
4616;SDS011;2321;42.704;23.384;2022-10-28T06:31:16;5.87;;;4.07;;
4616;SDS011;2321;42.704;23.384;2022-10-28T06:33:43;20.90;;;6.23;;
4616;SDS011;2321;42.704;23.384;2022-10-28T06:36:10;5.57;;;5.17;;
4616;SDS011;2321;42.704;23.384;2022-10-28T06:38:37;10.93;;;6.97;;
4616;SDS011;2321;42.704;23.384;2022-10-28T06:41:04;7.20;;;4.93;;
4616;SDS011;2321;42.704;23.384;2022-10-28T06:43:31;12.23;;;4.60;;
4616;SDS011;2321;42.704;23.384;2022-10-28T06:45:59;5.43;;;4.90;;
4616;SDS011;2321;42.704;23.384;2022-10-28T06:48:28;30.27;;;4.40;;
4616;SDS011;2321;42.704;23.384;2022-10-28T06:50:55;4.80;;;4.17;;
4616;SDS011;2321;42.704;23.384;2022-10-28T06:53:23;10.63;;;5.03;;
4616;SDS011;2321;42.704;23.384;2022-10-28T06:55:53;21.87;;;4.80;;
4616;SDS011;2321;42.704;23.384;2022-10-28T06:58:20;3.93;;;3.53;;
4616;SDS011;2321;42.704;23.384;2022-10-28T07:00:47;4.97;;;4.40;;
4616;SDS011;2321;42.704;23.384;2022-10-28T07:03:14;4.73;;;4.30;;
4616;SDS011;2321;42.704;23.384;2022-10-28T07:05:44;9.20;;;5.40;;
4616;SDS011;2321;42.704;23.384;2022-10-28T07:08:13;5.27;;;3.97;;
4616;SDS011;2321;42.704;23.384;2022-10-28T07:10:41;10.07;;;4.27;;
4616;SDS011;2321;42.704;23.384;2022-10-28T07:13:08;3.77;;;3.47;;
4616;SDS011;2321;42.704;23.384;2022-10-28T07:15:34;6.33;;;5.03;;
4616;SDS011;2321;42.704;23.384;2022-10-28T07:18:01;4.17;;;3.77;;
4616;SDS011;2321;42.704;23.384;2022-10-28T07:20:28;3.87;;;3.50;;
4616;SDS011;2321;42.704;23.384;2022-10-28T07:22:58;3.97;;;3.57;;
4616;SDS011;2321;42.704;23.384;2022-10-28T07:25:26;6.73;;;3.73;;
4616;SDS011;2321;42.704;23.384;2022-10-28T07:27:55;10.43;;;4.57;;
4616;SDS011;2321;42.704;23.384;2022-10-28T07:30:22;7.37;;;4.20;;
4616;SDS011;2321;42.704;23.384;2022-10-28T07:32:49;5.83;;;3.77;;
4616;SDS011;2321;42.704;23.384;2022-10-28T07:35:16;2.80;;;2.60;;
4616;SDS011;2321;42.704;23.384;2022-10-28T07:37:43;3.77;;;3.53;;
4616;SDS011;2321;42.704;23.384;2022-10-28T07:40:11;6.63;;;4.60;;
4616;SDS011;2321;42.704;23.384;2022-10-28T07:42:39;6.73;;;4.57;;
4616;SDS011;2321;42.704;23.384;2022-10-28T07:45:06;9.37;;;4.50;;
4616;SDS011;2321;42.704;23.384;2022-10-28T07:47:33;17.93;;;5.20;;
4616;SDS011;2321;42.704;23.384;2022-10-28T07:50:00;5.97;;;4.70;;
4616;SDS011;2321;42.704;23.384;2022-10-28T07:52:28;5.67;;;3.70;;
4616;SDS011;2321;42.704;23.384;2022-10-28T07:54:55;7.37;;;5.23;;
4616;SDS011;2321;42.704;23.384;2022-10-28T07:57:23;10.47;;;4.20;;
4616;SDS011;2321;42.704;23.384;2022-10-28T07:59:50;5.70;;;4.07;;
4616;SDS011;2321;42.704;23.384;2022-10-28T08:02:18;6.83;;;3.70;;
4616;SDS011;2321;42.704;23.384;2022-10-28T08:04:46;8.17;;;4.30;;
4616;SDS011;2321;42.704;23.384;2022-10-28T08:07:14;10.00;;;3.73;;
4616;SDS011;2321;42.704;23.384;2022-10-28T08:09:41;3.77;;;3.47;;
4616;SDS011;2321;42.704;23.384;2022-10-28T08:12:10;4.97;;;3.80;;
4616;SDS011;2321;42.704;23.384;2022-10-28T08:14:40;2.90;;;2.70;;
4616;SDS011;2321;42.704;23.384;2022-10-28T08:17:07;4.53;;;2.90;;
4616;SDS011;2321;42.704;23.384;2022-10-28T08:19:34;3.77;;;3.43;;
4616;SDS011;2321;42.704;23.384;2022-10-28T08:22:01;4.60;;;4.07;;
4616;SDS011;2321;42.704;23.384;2022-10-28T08:24:28;4.60;;;3.70;;
4616;SDS011;2321;42.704;23.384;2022-10-28T08:26:55;4.30;;;3.37;;
4616;SDS011;2321;42.704;23.384;2022-10-28T08:29:22;3.47;;;3.27;;
4616;SDS011;2321;42.704;23.384;2022-10-28T08:31:51;5.60;;;3.73;;
4616;SDS011;2321;42.704;23.384;2022-10-28T08:34:18;3.43;;;3.20;;
4616;SDS011;2321;42.704;23.384;2022-10-28T08:36:44;3.70;;;2.90;;
4616;SDS011;2321;42.704;23.384;2022-10-28T08:39:11;9.00;;;4.00;;
4616;SDS011;2321;42.704;23.384;2022-10-28T08:41:38;6.33;;;3.70;;
4616;SDS011;2321;42.704;23.384;2022-10-28T08:44:23;3.47;;;3.10;;
4616;SDS011;2321;42.704;23.384;2022-10-28T08:47:08;12.13;;;2.90;;
4616;SDS011;2321;42.704;23.384;2022-10-28T08:49:41;6.73;;;4.00;;
4616;SDS011;2321;42.704;23.384;2022-10-28T08:52:10;5.93;;;3.43;;
4616;SDS011;2321;42.704;23.384;2022-10-28T08:54:48;4.10;;;2.47;;
4616;SDS011;2321;42.704;23.384;2022-10-28T08:57:19;8.70;;;2.77;;
4616;SDS011;2321;42.704;23.384;2022-10-28T08:59:56;7.93;;;2.93;;
4616;SDS011;2321;42.704;23.384;2022-10-28T09:02:27;5.63;;;3.60;;
4616;SDS011;2321;42.704;23.384;2022-10-28T09:04:57;8.60;;;2.70;;
4616;SDS011;2321;42.704;23.384;2022-10-28T09:07:26;4.27;;;2.90;;
4616;SDS011;2321;42.704;23.384;2022-10-28T09:09:53;2.80;;;2.60;;
4616;SDS011;2321;42.704;23.384;2022-10-28T09:12:30;5.80;;;2.77;;
4616;SDS011;2321;42.704;23.384;2022-10-28T09:15:12;3.20;;;2.97;;
4616;SDS011;2321;42.704;23.384;2022-10-28T09:17:50;4.03;;;3.37;;
4616;SDS011;2321;42.704;23.384;2022-10-28T09:20:19;6.93;;;3.30;;
4616;SDS011;2321;42.704;23.384;2022-10-28T09:22:51;4.73;;;3.23;;
4616;SDS011;2321;42.704;23.384;2022-10-28T09:25:22;3.17;;;2.90;;
4616;SDS011;2321;42.704;23.384;2022-10-28T09:27:59;4.10;;;2.87;;
4616;SDS011;2321;42.704;23.384;2022-10-28T09:30:45;10.83;;;3.90;;
4616;SDS011;2321;42.704;23.384;2022-10-28T09:33:24;5.90;;;4.30;;
4616;SDS011;2321;42.704;23.384;2022-10-28T09:36:04;4.43;;;3.47;;
4616;SDS011;2321;42.704;23.384;2022-10-28T09:38:38;3.87;;;3.50;;
4616;SDS011;2321;42.704;23.384;2022-10-28T09:41:06;7.00;;;3.47;;
4616;SDS011;2321;42.704;23.384;2022-10-28T09:43:39;10.80;;;5.70;;
4616;SDS011;2321;42.704;23.384;2022-10-28T09:46:12;4.13;;;3.40;;
4616;SDS011;2321;42.704;23.384;2022-10-28T09:48:43;8.00;;;3.73;;
4616;SDS011;2321;42.704;23.384;2022-10-28T09:51:15;7.40;;;3.10;;
4616;SDS011;2321;42.704;23.384;2022-10-28T09:53:49;2.00;;;1.90;;
4616;SDS011;2321;42.704;23.384;2022-10-28T09:56:21;4.00;;;3.13;;
4616;SDS011;2321;42.704;23.384;2022-10-28T09:58:48;2.87;;;2.53;;
4616;SDS011;2321;42.704;23.384;2022-10-28T10:01:16;5.97;;;3.80;;
4616;SDS011;2321;42.704;23.384;2022-10-28T10:03:46;7.30;;;3.57;;
4616;SDS011;2321;42.704;23.384;2022-10-28T10:06:16;3.43;;;3.13;;
4616;SDS011;2321;42.704;23.384;2022-10-28T10:08:44;2.73;;;2.50;;
4616;SDS011;2321;42.704;23.384;2022-10-28T10:11:13;3.87;;;2.10;;
4616;SDS011;2321;42.704;23.384;2022-10-28T10:13:49;3.60;;;2.63;;
4616;SDS011;2321;42.704;23.384;2022-10-28T10:16:18;2.17;;;2.07;;
4616;SDS011;2321;42.704;23.384;2022-10-28T10:18:52;2.77;;;2.50;;
4616;SDS011;2321;42.704;23.384;2022-10-28T10:21:38;4.20;;;3.07;;
4616;SDS011;2321;42.704;23.384;2022-10-28T10:24:23;2.57;;;2.37;;
4616;SDS011;2321;42.704;23.384;2022-10-28T10:26:53;1.80;;;1.70;;
4616;SDS011;2321;42.704;23.384;2022-10-28T10:29:21;2.00;;;1.90;;
4616;SDS011;2321;42.704;23.384;2022-10-28T10:32:02;2.60;;;2.40;;
4616;SDS011;2321;42.704;23.384;2022-10-28T10:34:33;4.40;;;2.13;;
4616;SDS011;2321;42.704;23.384;2022-10-28T10:37:01;2.20;;;1.90;;
4616;SDS011;2321;42.704;23.384;2022-10-28T10:39:30;2.03;;;1.90;;
4616;SDS011;2321;42.704;23.384;2022-10-28T10:42:01;5.03;;;2.10;;
4616;SDS011;2321;42.704;23.384;2022-10-28T10:44:32;4.97;;;1.97;;
4616;SDS011;2321;42.704;23.384;2022-10-28T10:47:13;2.63;;;1.53;;
4616;SDS011;2321;42.704;23.384;2022-10-28T10:49:45;1.87;;;1.70;;
4616;SDS011;2321;42.704;23.384;2022-10-28T10:52:14;4.73;;;1.47;;
4616;SDS011;2321;42.704;23.384;2022-10-28T10:54:46;1.20;;;1.20;;
4616;SDS011;2321;42.704;23.384;2022-10-28T10:57:22;1.47;;;1.40;;
4616;SDS011;2321;42.704;23.384;2022-10-28T10:59:51;1.50;;;1.40;;
4616;SDS011;2321;42.704;23.384;2022-10-28T11:02:21;1.63;;;1.53;;
4616;SDS011;2321;42.704;23.384;2022-10-28T11:04:52;1.30;;;1.20;;
4616;SDS011;2321;42.704;23.384;2022-10-28T11:07:22;1.30;;;1.30;;
4616;SDS011;2321;42.704;23.384;2022-10-28T11:09:49;1.90;;;1.80;;
4616;SDS011;2321;42.704;23.384;2022-10-28T11:12:23;1.90;;;1.80;;
4616;SDS011;2321;42.704;23.384;2022-10-28T11:14:53;1.40;;;1.40;;
4616;SDS011;2321;42.704;23.384;2022-10-28T11:17:22;1.77;;;1.67;;
4616;SDS011;2321;42.704;23.384;2022-10-28T11:19:53;1.07;;;1.07;;
4616;SDS011;2321;42.704;23.384;2022-10-28T11:22:31;1.90;;;1.63;;
4616;SDS011;2321;42.704;23.384;2022-10-28T11:25:09;2.03;;;1.60;;
4616;SDS011;2321;42.704;23.384;2022-10-28T11:27:50;1.63;;;1.53;;
4616;SDS011;2321;42.704;23.384;2022-10-28T11:30:28;1.70;;;1.60;;
4616;SDS011;2321;42.704;23.384;2022-10-28T11:33:05;1.90;;;1.80;;
4616;SDS011;2321;42.704;23.384;2022-10-28T11:38:37;2.60;;;1.60;;
4616;SDS011;2321;42.704;23.384;2022-10-28T11:41:20;2.27;;;2.07;;
4616;SDS011;2321;42.704;23.384;2022-10-28T11:43:56;3.93;;;2.00;;
4616;SDS011;2321;42.704;23.384;2022-10-28T11:46:35;2.20;;;2.03;;
4616;SDS011;2321;42.704;23.384;2022-10-28T11:49:23;1.30;;;1.20;;
4616;SDS011;2321;42.704;23.384;2022-10-28T11:52:18;1.40;;;1.40;;
4616;SDS011;2321;42.704;23.384;2022-10-28T11:54:56;1.70;;;1.60;;
4616;SDS011;2321;42.704;23.384;2022-10-28T11:57:37;1.90;;;1.80;;
4616;SDS011;2321;42.704;23.384;2022-10-28T12:00:21;2.07;;;1.87;;
4616;SDS011;2321;42.704;23.384;2022-10-28T12:02:57;2.10;;;2.00;;
4616;SDS011;2321;42.704;23.384;2022-10-28T12:05:37;1.57;;;1.57;;
4616;SDS011;2321;42.704;23.384;2022-10-28T12:11:10;1.33;;;1.33;;
4616;SDS011;2321;42.704;23.384;2022-10-28T12:13:48;4.53;;;1.43;;
4616;SDS011;2321;42.704;23.384;2022-10-28T12:16:28;2.90;;;1.57;;
4616;SDS011;2321;42.704;23.384;2022-10-28T12:19:04;1.87;;;1.77;;
4616;SDS011;2321;42.704;23.384;2022-10-28T12:21:38;9.43;;;1.70;;
4616;SDS011;2321;42.704;23.384;2022-10-28T12:24:11;7.73;;;2.27;;
4616;SDS011;2321;42.704;23.384;2022-10-28T12:26:42;1.40;;;1.30;;
4616;SDS011;2321;42.704;23.384;2022-10-28T12:29:14;2.03;;;1.93;;
4616;SDS011;2321;42.704;23.384;2022-10-28T12:31:47;1.67;;;1.67;;
4616;SDS011;2321;42.704;23.384;2022-10-28T12:34:19;2.00;;;1.80;;
4616;SDS011;2321;42.704;23.384;2022-10-28T12:36:55;1.97;;;1.87;;
4616;SDS011;2321;42.704;23.384;2022-10-28T12:39:29;2.13;;;2.03;;
4616;SDS011;2321;42.704;23.384;2022-10-28T12:41:59;1.67;;;1.57;;
4616;SDS011;2321;42.704;23.384;2022-10-28T12:44:31;2.23;;;1.70;;
4616;SDS011;2321;42.704;23.384;2022-10-28T12:47:02;4.23;;;1.50;;
4616;SDS011;2321;42.704;23.384;2022-10-28T12:49:40;1.40;;;1.30;;
4616;SDS011;2321;42.704;23.384;2022-10-28T12:52:16;2.23;;;2.03;;
4616;SDS011;2321;42.704;23.384;2022-10-28T12:54:55;1.67;;;1.60;;
4616;SDS011;2321;42.704;23.384;2022-10-28T12:57:26;3.40;;;1.60;;
4616;SDS011;2321;42.704;23.384;2022-10-28T12:59:58;1.97;;;1.43;;
4616;SDS011;2321;42.704;23.384;2022-10-28T13:02:29;2.30;;;1.90;;
4616;SDS011;2321;42.704;23.384;2022-10-28T13:04:58;1.90;;;1.63;;
4616;SDS011;2321;42.704;23.384;2022-10-28T13:07:32;1.17;;;1.17;;
4616;SDS011;2321;42.704;23.384;2022-10-28T13:10:24;1.80;;;1.30;;
4616;SDS011;2321;42.704;23.384;2022-10-28T13:16:11;1.50;;;1.50;;
4616;SDS011;2321;42.704;23.384;2022-10-28T13:18:57;1.83;;;1.73;;
4616;SDS011;2321;42.704;23.384;2022-10-28T13:21:53;5.67;;;3.70;;
4616;SDS011;2321;42.704;23.384;2022-10-28T13:24:38;11.03;;;5.23;;
4616;SDS011;2321;42.704;23.384;2022-10-28T13:27:14;13.70;;;3.60;;
4616;SDS011;2321;42.704;23.384;2022-10-28T13:29:42;2.43;;;2.20;;
4616;SDS011;2321;42.704;23.384;2022-10-28T13:32:27;3.13;;;2.00;;
4616;SDS011;2321;42.704;23.384;2022-10-28T13:34:56;1.83;;;1.73;;
4616;SDS011;2321;42.704;23.384;2022-10-28T13:37:26;2.23;;;1.57;;
4616;SDS011;2321;42.704;23.384;2022-10-28T13:39:59;3.60;;;1.70;;
4616;SDS011;2321;42.704;23.384;2022-10-28T13:51:28;2.90;;;2.40;;
4616;SDS011;2321;42.704;23.384;2022-10-28T13:53:59;6.00;;;2.80;;
4616;SDS011;2321;42.704;23.384;2022-10-28T13:56:28;2.60;;;2.40;;
4616;SDS011;2321;42.704;23.384;2022-10-28T13:59:04;2.00;;;1.90;;
4616;SDS011;2321;42.704;23.384;2022-10-28T14:01:52;2.00;;;1.90;;
4616;SDS011;2321;42.704;23.384;2022-10-28T14:04:25;4.00;;;2.00;;
4616;SDS011;2321;42.704;23.384;2022-10-28T14:07:02;1.30;;;1.30;;
4616;SDS011;2321;42.704;23.384;2022-10-28T14:09:32;11.47;;;3.70;;
4616;SDS011;2321;42.704;23.384;2022-10-28T14:12:10;2.97;;;1.53;;
4616;SDS011;2321;42.704;23.384;2022-10-28T14:14:58;1.50;;;1.50;;
4616;SDS011;2321;42.704;23.384;2022-10-28T14:17:29;4.57;;;1.53;;
4616;SDS011;2321;42.704;23.384;2022-10-28T14:20:02;2.43;;;2.00;;
4616;SDS011;2321;42.704;23.384;2022-10-28T14:22:31;6.53;;;2.70;;
4616;SDS011;2321;42.704;23.384;2022-10-28T14:25:00;3.87;;;2.03;;
4616;SDS011;2321;42.704;23.384;2022-10-28T14:27:38;5.40;;;2.00;;
4616;SDS011;2321;42.704;23.384;2022-10-28T14:30:18;1.40;;;1.40;;
4616;SDS011;2321;42.704;23.384;2022-10-28T14:32:55;1.30;;;1.30;;
4616;SDS011;2321;42.704;23.384;2022-10-28T14:35:27;1.80;;;1.80;;
4616;SDS011;2321;42.704;23.384;2022-10-28T14:41:16;1.70;;;1.60;;
4616;SDS011;2321;42.704;23.384;2022-10-28T14:43:54;1.30;;;1.30;;
4616;SDS011;2321;42.704;23.384;2022-10-28T14:46:33;1.57;;;1.47;;
4616;SDS011;2321;42.704;23.384;2022-10-28T14:49:16;2.30;;;2.20;;
4616;SDS011;2321;42.704;23.384;2022-10-28T14:51:46;2.80;;;1.73;;
4616;SDS011;2321;42.704;23.384;2022-10-28T14:54:16;2.80;;;2.47;;
4616;SDS011;2321;42.704;23.384;2022-10-28T14:56:48;2.00;;;1.90;;
4616;SDS011;2321;42.704;23.384;2022-10-28T14:59:23;8.07;;;2.83;;
4616;SDS011;2321;42.704;23.384;2022-10-28T15:01:57;4.93;;;2.20;;
4616;SDS011;2321;42.704;23.384;2022-10-28T15:04:27;4.50;;;2.90;;
4616;SDS011;2321;42.704;23.384;2022-10-28T15:06:55;6.53;;;3.80;;
4616;SDS011;2321;42.704;23.384;2022-10-28T15:09:23;14.40;;;3.67;;
4616;SDS011;2321;42.704;23.384;2022-10-28T15:11:53;7.97;;;5.30;;
4616;SDS011;2321;42.704;23.384;2022-10-28T15:14:31;6.40;;;3.97;;
4616;SDS011;2321;42.704;23.384;2022-10-28T15:17:11;3.27;;;2.83;;
4616;SDS011;2321;42.704;23.384;2022-10-28T15:19:40;4.30;;;3.60;;
4616;SDS011;2321;42.704;23.384;2022-10-28T15:22:12;3.10;;;2.77;;
4616;SDS011;2321;42.704;23.384;2022-10-28T15:24:41;4.17;;;2.50;;
4616;SDS011;2321;42.704;23.384;2022-10-28T15:27:18;2.57;;;2.37;;
4616;SDS011;2321;42.704;23.384;2022-10-28T15:29:46;4.83;;;2.40;;
4616;SDS011;2321;42.704;23.384;2022-10-28T15:32:24;3.80;;;2.60;;
4616;SDS011;2321;42.704;23.384;2022-10-28T15:34:55;3.03;;;2.17;;
4616;SDS011;2321;42.704;23.384;2022-10-28T15:37:23;5.73;;;2.83;;
4616;SDS011;2321;42.704;23.384;2022-10-28T15:40:07;3.33;;;2.63;;
4616;SDS011;2321;42.704;23.384;2022-10-28T15:42:38;2.10;;;1.47;;
4616;SDS011;2321;42.704;23.384;2022-10-28T15:45:15;3.73;;;1.97;;
4616;SDS011;2321;42.704;23.384;2022-10-28T15:47:45;2.30;;;2.10;;
4616;SDS011;2321;42.704;23.384;2022-10-28T15:50:22;3.50;;;3.07;;
4616;SDS011;2321;42.704;23.384;2022-10-28T15:55:46;5.60;;;3.37;;
4616;SDS011;2321;42.704;23.384;2022-10-28T15:58:38;6.03;;;3.00;;